createdAt,value
2017-06-19T00:00:20.723Z,0
2017-06-19T00:01:20.740Z,0
2017-06-19T00:02:20.772Z,0
2017-06-19T00:03:20.840Z,0
2017-06-19T00:04:20.870Z,0
2017-06-19T00:05:20.920Z,0
2017-06-19T00:06:20.882Z,0
2017-06-19T00:07:20.935Z,0
2017-06-19T00:08:21.008Z,0
2017-06-19T00:09:21.029Z,0
2017-06-19T00:10:21.066Z,0
2017-06-19T00:11:21.089Z,0
2017-06-19T00:12:21.139Z,0
2017-06-19T00:13:21.162Z,0
2017-06-19T00:14:21.230Z,0
2017-06-19T00:15:21.252Z,0
2017-06-19T00:16:21.299Z,0
2017-06-19T00:17:21.330Z,0
2017-06-19T00:18:21.371Z,0
2017-06-19T00:19:21.371Z,0
2017-06-19T00:20:21.428Z,0
2017-06-19T00:21:21.468Z,0
2017-06-19T00:22:21.523Z,0
2017-06-19T00:23:21.551Z,0
2017-06-19T00:24:21.545Z,0
2017-06-19T00:25:21.610Z,0
2017-06-19T00:26:21.633Z,0
2017-06-19T00:27:21.673Z,0
2017-06-19T00:28:21.715Z,0
2017-06-19T00:29:21.764Z,0
2017-06-19T00:30:21.759Z,0
2017-06-19T00:31:21.834Z,0
2017-06-19T00:32:21.860Z,0
2017-06-19T00:33:21.894Z,0
2017-06-19T00:34:21.907Z,0
2017-06-19T00:35:21.959Z,0
2017-06-19T00:36:22.014Z,0
2017-06-19T00:37:22.052Z,0
2017-06-19T00:38:22.063Z,0
2017-06-19T00:39:22.132Z,0
2017-06-19T00:40:22.163Z,0
2017-06-19T00:41:22.169Z,0
2017-06-19T00:42:22.246Z,0
2017-06-19T00:43:22.256Z,0
2017-06-19T00:44:22.298Z,0
2017-06-19T00:45:22.318Z,0
2017-06-19T00:46:22.376Z,0
2017-06-19T00:47:22.393Z,0
2017-06-19T00:48:22.429Z,0
2017-06-19T00:49:22.463Z,0
2017-06-19T00:50:22.531Z,0
2017-06-19T00:51:22.559Z,0
2017-06-19T00:52:22.559Z,0
2017-06-19T00:53:22.615Z,0
2017-06-19T00:54:22.648Z,0
2017-06-19T00:55:22.677Z,0
2017-06-19T00:56:22.718Z,0
2017-06-19T00:57:22.769Z,0
2017-06-19T00:58:22.791Z,0
2017-06-19T00:59:22.829Z,0
2017-06-19T01:00:22.890Z,0
2017-06-19T01:01:22.903Z,0
2017-06-19T01:02:22.988Z,0
2017-06-19T01:03:22.934Z,0
2017-06-19T01:04:23.027Z,0
2017-06-19T01:05:23.040Z,0
2017-06-19T01:06:23.050Z,0
2017-06-19T01:07:23.114Z,0
2017-06-19T01:08:23.154Z,0
2017-06-19T01:09:23.170Z,0
2017-06-19T01:10:23.215Z,0
2017-06-19T01:11:23.265Z,0
2017-06-19T01:12:23.296Z,0
2017-06-19T01:13:23.331Z,0
2017-06-19T01:14:23.373Z,0
2017-06-19T01:15:23.399Z,0
2017-06-19T01:16:23.410Z,0
2017-06-19T01:17:23.453Z,0
2017-06-19T01:18:23.520Z,0
2017-06-19T01:19:23.531Z,0
2017-06-19T01:20:23.560Z,0
2017-06-19T01:21:23.602Z,0
2017-06-19T01:22:23.621Z,0
2017-06-19T01:23:23.679Z,0
2017-06-19T01:24:23.707Z,0
2017-06-19T01:25:23.765Z,0
2017-06-19T01:26:23.799Z,0
2017-06-19T01:27:23.820Z,0
2017-06-19T01:28:23.870Z,0
2017-06-19T01:29:23.902Z,0
2017-06-19T01:30:23.922Z,0
2017-06-19T01:31:23.960Z,0
2017-06-19T01:32:24.029Z,0
2017-06-19T01:33:24.039Z,0
2017-06-19T01:34:24.064Z,0
2017-06-19T01:35:24.119Z,0
2017-06-19T01:36:24.157Z,0
2017-06-19T01:37:24.159Z,0
2017-06-19T01:38:24.208Z,0
2017-06-19T01:39:24.266Z,0
2017-06-19T01:40:24.299Z,0
2017-06-19T01:41:24.307Z,0
2017-06-19T01:42:24.369Z,0
2017-06-19T01:43:24.399Z,0
2017-06-19T01:44:24.429Z,0
2017-06-19T01:45:24.437Z,0
2017-06-19T01:46:24.500Z,0
2017-06-19T01:47:24.534Z,0
2017-06-19T01:48:24.558Z,0
2017-06-19T01:49:24.600Z,0
2017-06-19T01:50:24.655Z,0
2017-06-19T01:51:24.670Z,0
2017-06-19T01:52:24.713Z,0
2017-06-19T01:53:24.760Z,0
2017-06-19T01:54:24.761Z,0
2017-06-19T01:55:24.801Z,0
2017-06-19T01:56:24.816Z,0
2017-06-19T01:57:24.900Z,0
2017-06-19T01:58:24.928Z,0
2017-06-19T01:59:24.966Z,0
2017-06-19T02:00:24.982Z,0
2017-06-19T02:01:25.020Z,0
2017-06-19T02:02:25.061Z,0
2017-06-19T02:03:25.045Z,0
2017-06-19T02:04:25.132Z,0
2017-06-19T02:05:25.171Z,0
2017-06-19T02:06:25.213Z,0
2017-06-19T02:07:25.218Z,0
2017-06-19T02:08:25.259Z,0
2017-06-19T02:09:25.319Z,0
2017-06-19T02:10:25.354Z,0
2017-06-19T02:11:25.371Z,0
2017-06-19T02:12:25.435Z,0
2017-06-19T02:13:25.445Z,0
2017-06-19T02:14:25.462Z,0
2017-06-19T02:15:25.535Z,0
2017-06-19T02:16:25.560Z,0
2017-06-19T02:17:25.563Z,0
2017-06-19T02:18:25.633Z,0
2017-06-19T02:19:25.669Z,0
2017-06-19T02:20:25.706Z,0
2017-06-19T02:21:25.736Z,0
2017-06-19T02:22:25.767Z,0
2017-06-19T02:23:25.808Z,0
2017-06-19T02:24:25.830Z,0
2017-06-19T02:25:25.860Z,0
2017-06-19T02:26:25.929Z,0
2017-06-19T02:27:25.930Z,0
2017-06-19T02:28:25.960Z,0
2017-06-19T02:29:26.031Z,0
2017-06-19T02:30:26.057Z,0
2017-06-19T02:31:26.080Z,0
2017-06-19T02:32:26.107Z,0
2017-06-19T02:33:26.166Z,0
2017-06-19T02:34:26.198Z,0
2017-06-19T02:35:26.232Z,0
2017-06-19T02:36:26.259Z,5
2017-06-19T02:37:26.286Z,5
2017-06-19T02:38:26.332Z,5
2017-06-19T02:39:26.351Z,5
2017-06-19T02:40:26.379Z,5
2017-06-19T02:41:26.450Z,5
2017-06-19T02:42:26.476Z,5
2017-06-19T02:43:26.521Z,5
2017-06-19T02:44:26.555Z,5
2017-06-19T02:45:26.666Z,5
2017-06-19T02:46:26.611Z,10
2017-06-19T02:47:26.629Z,10
2017-06-19T02:48:26.712Z,10
2017-06-19T02:49:26.696Z,10
2017-06-19T02:50:26.764Z,10
2017-06-19T02:51:26.808Z,10
2017-06-19T02:52:26.847Z,10
2017-06-19T02:53:26.868Z,15
2017-06-19T02:54:26.902Z,15
2017-06-19T02:55:26.930Z,15
2017-06-19T02:56:26.941Z,15
2017-06-19T02:57:27.000Z,15
2017-06-19T02:58:27.033Z,15
2017-06-19T02:59:27.081Z,20
2017-06-19T03:00:27.104Z,20
2017-06-19T03:01:27.150Z,20
2017-06-19T03:02:27.161Z,20
2017-06-19T03:03:27.217Z,20
2017-06-19T03:04:27.235Z,25
2017-06-19T03:05:27.293Z,25
2017-06-19T03:06:27.310Z,25
2017-06-19T03:07:27.338Z,25
2017-06-19T03:08:27.361Z,25
2017-06-19T03:09:27.426Z,30
2017-06-19T03:10:27.440Z,30
2017-06-19T03:11:27.490Z,30
2017-06-19T03:12:27.528Z,30
2017-06-19T03:13:27.541Z,35
2017-06-19T03:14:27.592Z,35
2017-06-19T03:15:27.621Z,35
2017-06-19T03:16:27.677Z,35
2017-06-19T03:17:27.682Z,40
2017-06-19T03:18:27.720Z,40
2017-06-19T03:19:27.756Z,40
2017-06-19T03:20:27.806Z,40
2017-06-19T03:21:27.839Z,45
2017-06-19T03:22:27.874Z,45
2017-06-19T03:23:27.913Z,45
2017-06-19T03:24:27.943Z,45
2017-06-19T03:25:27.964Z,50
2017-06-19T03:26:28.014Z,50
2017-06-19T03:27:28.055Z,50
2017-06-19T03:28:28.093Z,50
2017-06-19T03:29:28.107Z,55
2017-06-19T03:30:28.160Z,55
2017-06-19T03:31:28.171Z,55
2017-06-19T03:32:28.232Z,60
2017-06-19T03:33:28.258Z,60
2017-06-19T03:34:28.288Z,60
2017-06-19T03:35:28.335Z,60
2017-06-19T03:36:28.372Z,65
2017-06-19T03:37:28.409Z,65
2017-06-19T03:38:28.438Z,65
2017-06-19T03:39:28.473Z,70
2017-06-19T03:40:28.510Z,70
2017-06-19T03:41:28.542Z,70
2017-06-19T03:42:28.580Z,75
2017-06-19T03:43:28.607Z,75
2017-06-19T03:44:28.642Z,75
2017-06-19T03:45:28.670Z,75
2017-06-19T03:46:28.696Z,80
2017-06-19T03:47:28.746Z,80
2017-06-19T03:48:28.792Z,80
2017-06-19T03:49:28.808Z,85
2017-06-19T03:50:28.838Z,85
2017-06-19T03:51:28.892Z,85
2017-06-19T03:52:28.933Z,90
2017-06-19T03:53:28.966Z,90
2017-06-19T03:54:28.973Z,90
2017-06-19T03:55:29.045Z,95
2017-06-19T03:56:29.066Z,95
2017-06-19T03:57:29.118Z,95
2017-06-19T03:58:29.133Z,100
2017-06-19T03:59:29.171Z,100
2017-06-19T04:01:23.300Z,105
2017-06-19T04:01:51.954Z,105
2017-06-19T04:02:52.055Z,105
2017-06-19T04:03:52.081Z,110
2017-06-19T04:04:52.066Z,110
2017-06-19T04:05:52.114Z,115
2017-06-19T04:06:52.132Z,115
2017-06-19T04:07:52.180Z,125
2017-06-19T04:08:52.205Z,135
2017-06-19T04:09:52.230Z,140
2017-06-19T04:10:52.268Z,155
2017-06-19T04:11:52.317Z,175
2017-06-19T04:12:52.374Z,210
2017-06-19T04:13:52.386Z,280
2017-06-19T04:14:52.444Z,390
2017-06-19T04:15:52.441Z,460
2017-06-19T04:16:52.506Z,485
2017-06-19T04:17:52.527Z,475
2017-06-19T04:18:52.566Z,450
2017-06-19T04:19:52.650Z,430
2017-06-19T04:20:52.607Z,390
2017-06-19T04:21:52.651Z,315
2017-06-19T04:22:52.716Z,360
2017-06-19T04:23:52.706Z,515
2017-06-19T04:24:52.817Z,710
2017-06-19T04:25:52.819Z,850
2017-06-19T04:26:52.834Z,970
2017-06-19T04:27:52.977Z,1050
2017-06-19T04:28:52.942Z,1110
2017-06-19T04:29:52.978Z,1235
2017-06-19T04:30:52.990Z,1270
2017-06-19T04:31:53.023Z,1210
2017-06-19T04:32:53.082Z,875
2017-06-19T04:33:53.179Z,370
2017-06-19T04:34:53.228Z,300
2017-06-19T04:35:53.207Z,290
2017-06-19T04:36:53.258Z,255
2017-06-19T04:37:53.282Z,295
2017-06-19T04:38:53.327Z,495
2017-06-19T04:39:53.313Z,485
2017-06-19T04:40:53.410Z,415
2017-06-19T04:41:53.469Z,410
2017-06-19T04:42:53.479Z,365
2017-06-19T04:43:53.514Z,365
2017-06-19T04:44:53.633Z,430
2017-06-19T04:45:53.618Z,840
2017-06-19T04:46:53.644Z,1090
2017-06-19T04:47:53.649Z,735
2017-06-19T04:48:53.779Z,535
2017-06-19T04:49:53.783Z,690
2017-06-19T04:50:53.789Z,895
2017-06-19T04:51:53.835Z,755
2017-06-19T04:52:53.886Z,490
2017-06-19T04:53:53.914Z,405
2017-06-19T04:54:53.912Z,420
2017-06-19T04:55:53.965Z,330
2017-06-19T04:56:54.129Z,360
2017-06-19T04:57:54.129Z,385
2017-06-19T04:58:54.073Z,340
2017-06-19T04:59:54.149Z,365
2017-06-19T05:00:54.275Z,405
2017-06-19T05:01:54.317Z,370
2017-06-19T05:02:54.306Z,335
2017-06-19T05:03:54.331Z,340
2017-06-19T05:04:54.382Z,375
2017-06-19T05:05:54.515Z,430
2017-06-19T05:06:54.465Z,430
2017-06-19T05:07:54.507Z,515
2017-06-19T05:08:54.452Z,870
2017-06-19T05:09:54.578Z,895
2017-06-19T05:10:54.580Z,460
2017-06-19T05:11:54.642Z,360
2017-06-19T05:12:54.667Z,375
2017-06-19T05:13:54.691Z,435
2017-06-19T05:14:54.683Z,660
2017-06-19T05:15:54.794Z,1215
2017-06-19T05:16:54.850Z,1390
2017-06-19T05:17:54.874Z,1380
2017-06-19T05:18:54.962Z,1115
2017-06-19T05:19:54.978Z,615
2017-06-19T05:20:54.984Z,380
2017-06-19T05:21:55.043Z,405
2017-06-19T05:22:55.084Z,480
2017-06-19T05:23:55.103Z,475
2017-06-19T05:24:55.083Z,415
2017-06-19T05:25:55.223Z,395
2017-06-19T05:26:55.261Z,430
2017-06-19T05:27:55.265Z,365
2017-06-19T05:28:55.340Z,320
2017-06-19T05:29:55.382Z,315
2017-06-19T05:30:55.412Z,305
2017-06-19T05:31:55.496Z,310
2017-06-19T05:32:55.501Z,265
2017-06-19T05:33:55.473Z,395
2017-06-19T05:34:55.526Z,460
2017-06-19T05:35:55.558Z,400
2017-06-19T05:36:55.631Z,400
2017-06-19T05:37:55.650Z,440
2017-06-19T05:38:55.679Z,595
2017-06-19T05:39:55.747Z,590
2017-06-19T05:40:55.850Z,425
2017-06-19T05:41:55.935Z,340
2017-06-19T05:42:55.847Z,350
2017-06-19T05:43:55.909Z,360
2017-06-19T05:44:55.921Z,385
2017-06-19T05:45:55.959Z,490
2017-06-19T05:46:56.045Z,490
2017-06-19T05:47:56.042Z,595
2017-06-19T05:48:56.137Z,775
2017-06-19T05:49:56.231Z,615
2017-06-19T05:50:56.200Z,480
2017-06-19T05:51:56.261Z,405
2017-06-19T05:52:56.295Z,495
2017-06-19T05:53:56.309Z,465
2017-06-19T05:54:56.349Z,405
2017-06-19T05:55:56.392Z,385
2017-06-19T05:56:56.407Z,410
2017-06-19T05:57:56.413Z,525
2017-06-19T05:58:56.510Z,475
2017-06-19T05:59:56.606Z,375
2017-06-19T06:00:56.592Z,385
2017-06-19T06:01:56.635Z,370
2017-06-19T06:02:56.691Z,380
2017-06-19T06:03:56.706Z,385
2017-06-19T06:04:56.855Z,400
2017-06-19T06:05:56.882Z,440
2017-06-19T06:06:56.873Z,1150
2017-06-19T06:07:56.872Z,1535
2017-06-19T06:08:56.901Z,1445
2017-06-19T06:09:56.907Z,995
2017-06-19T06:10:57.006Z,875
2017-06-19T06:11:57.084Z,875
2017-06-19T06:12:57.043Z,1840
2017-06-19T06:13:57.109Z,1715
2017-06-19T06:14:57.150Z,1880
2017-06-19T06:15:57.213Z,1885
2017-06-19T06:16:57.259Z,1540
2017-06-19T06:17:57.262Z,1740
2017-06-19T06:18:57.280Z,1735
2017-06-19T06:19:57.402Z,1750
2017-06-19T06:20:57.397Z,1930
2017-06-19T06:21:57.492Z,2095
2017-06-19T06:22:57.483Z,2065
2017-06-19T06:23:57.556Z,1990
2017-06-19T06:24:57.613Z,2035
2017-06-19T06:25:57.607Z,2150
2017-06-19T06:26:57.705Z,2200
2017-06-19T06:27:57.691Z,2205
2017-06-19T06:28:57.787Z,2245
2017-06-19T06:29:57.813Z,2225
2017-06-19T06:30:57.805Z,2180
2017-06-19T06:31:57.873Z,2215
2017-06-19T06:32:57.897Z,2250
2017-06-19T06:33:57.903Z,2215
2017-06-19T06:34:57.948Z,2190
2017-06-19T06:35:58.025Z,2190
2017-06-19T06:36:58.115Z,2270
2017-06-19T06:37:58.087Z,2350
2017-06-19T06:38:58.146Z,2310
2017-06-19T06:39:58.292Z,2295
2017-06-19T06:40:58.246Z,2285
2017-06-19T06:41:58.261Z,2340
2017-06-19T06:42:58.373Z,2390
2017-06-19T06:43:58.425Z,2400
2017-06-19T06:44:58.481Z,2370
2017-06-19T06:45:58.479Z,2410
2017-06-19T06:46:58.505Z,2355
2017-06-19T06:47:58.601Z,2335
2017-06-19T06:48:58.705Z,2390
2017-06-19T06:49:58.723Z,2340
2017-06-19T06:50:58.725Z,2200
2017-06-19T06:51:58.768Z,2190
2017-06-19T06:52:58.801Z,2180
2017-06-19T06:53:58.868Z,2150
2017-06-19T06:54:58.908Z,2420
2017-06-19T06:55:58.961Z,2540
2017-06-19T06:56:59.072Z,2410
2017-06-19T06:57:59.081Z,2285
2017-06-19T06:58:59.076Z,2155
2017-06-19T06:59:59.120Z,2170
2017-06-19T07:00:59.194Z,2160
2017-06-19T07:01:59.294Z,2085
2017-06-19T07:02:59.319Z,2115
2017-06-19T07:03:59.329Z,2125
2017-06-19T07:04:59.369Z,2105
2017-06-19T07:05:59.484Z,2180
2017-06-19T07:06:59.526Z,2305
2017-06-19T07:07:59.517Z,2440
2017-06-19T07:08:59.574Z,2390
2017-06-19T07:09:59.622Z,2455
2017-06-19T07:10:59.686Z,2455
2017-06-19T07:11:59.735Z,2110
2017-06-19T07:12:59.792Z,1960
2017-06-19T07:13:59.765Z,2125
2017-06-19T07:14:59.908Z,2400
2017-06-19T07:15:59.904Z,2550
2017-06-19T07:17:00.033Z,2530
2017-06-19T07:17:59.975Z,2465
2017-06-19T07:19:00.129Z,2460
2017-06-19T07:20:00.105Z,2390
2017-06-19T07:21:00.117Z,2465
2017-06-19T07:22:00.222Z,2670
2017-06-19T07:23:00.211Z,2660
2017-06-19T07:24:00.295Z,2640
2017-06-19T07:25:00.287Z,2705
2017-06-19T07:26:00.429Z,2690
2017-06-19T07:27:00.483Z,2580
2017-06-19T07:28:00.497Z,2510
2017-06-19T07:29:00.520Z,2680
2017-06-19T07:30:00.632Z,2645
2017-06-19T07:31:00.586Z,2700
2017-06-19T07:32:00.676Z,2745
2017-06-19T07:33:00.683Z,2725
2017-06-19T07:34:00.812Z,2615
2017-06-19T07:35:00.851Z,2510
2017-06-19T07:36:00.877Z,2615
2017-06-19T07:37:00.943Z,2680
2017-06-19T07:38:00.975Z,2700
2017-06-19T07:39:00.983Z,2700
2017-06-19T07:40:01.041Z,2690
2017-06-19T07:41:01.134Z,2690
2017-06-19T07:42:01.133Z,2790
2017-06-19T07:43:01.233Z,2810
2017-06-19T07:44:01.323Z,2655
2017-06-19T07:45:01.375Z,2415
2017-06-19T07:46:01.434Z,2095
2017-06-19T07:47:01.408Z,1895
2017-06-19T07:48:01.398Z,1790
2017-06-19T07:49:01.496Z,2225
2017-06-19T07:50:01.522Z,2810
2017-06-19T07:51:01.581Z,2865
2017-06-19T07:52:01.676Z,2775
2017-06-19T07:53:01.694Z,2735
2017-06-19T07:54:01.806Z,2810
2017-06-19T07:55:01.930Z,2890
2017-06-19T07:56:01.828Z,2805
2017-06-19T07:57:01.875Z,2730
2017-06-19T07:58:01.978Z,2870
2017-06-19T07:59:02.040Z,2835
2017-06-19T08:00:02.242Z,2860
2017-06-19T08:01:02.154Z,2890
2017-06-19T08:02:02.196Z,2825
2017-06-19T08:03:02.202Z,2830
2017-06-19T08:04:02.279Z,2745
2017-06-19T08:05:02.430Z,2710
2017-06-19T08:06:02.444Z,2895
2017-06-19T08:07:02.446Z,2845
2017-06-19T08:08:02.431Z,2920
2017-06-19T08:09:02.536Z,2945
2017-06-19T08:10:02.577Z,2950
2017-06-19T08:11:02.611Z,3000
2017-06-19T08:12:02.678Z,2960
2017-06-19T08:13:02.746Z,3005
2017-06-19T08:14:02.846Z,3070
2017-06-19T08:15:02.803Z,2925
2017-06-19T08:16:02.910Z,2870
2017-06-19T08:17:02.850Z,2960
2017-06-19T08:18:03.008Z,3000
2017-06-19T08:19:02.983Z,3040
2017-06-19T08:20:03.095Z,3120
2017-06-19T08:21:03.058Z,2960
2017-06-19T08:22:03.161Z,2895
2017-06-19T08:23:03.211Z,2950
2017-06-19T08:24:03.275Z,3005
2017-06-19T08:25:03.331Z,3000
2017-06-19T08:26:03.394Z,2760
2017-06-19T08:27:03.394Z,2330
2017-06-19T08:28:03.502Z,2625
2017-06-19T08:29:03.510Z,2880
2017-06-19T08:30:03.569Z,2910
2017-06-19T08:31:03.616Z,3140
2017-06-19T08:32:03.665Z,3350
2017-06-19T08:33:03.696Z,3380
2017-06-19T08:34:03.746Z,3645
2017-06-19T08:35:03.830Z,3710
2017-06-19T08:36:03.865Z,3425
2017-06-19T08:37:03.887Z,3275
2017-06-19T08:38:03.987Z,3280
2017-06-19T08:39:04.010Z,3365
2017-06-19T08:40:04.153Z,3445
2017-06-19T08:41:04.094Z,3425
2017-06-19T08:42:04.298Z,3530
2017-06-19T08:43:04.162Z,3665
2017-06-19T08:44:04.331Z,3850
2017-06-19T08:45:04.291Z,3875
2017-06-19T08:46:04.369Z,3805
2017-06-19T08:47:04.446Z,3895
2017-06-19T08:48:04.516Z,3755
2017-06-19T08:49:04.496Z,3540
2017-06-19T08:50:04.638Z,3470
2017-06-19T08:51:04.641Z,3380
2017-06-19T08:52:04.740Z,3235
2017-06-19T08:53:04.739Z,3315
2017-06-19T08:54:04.821Z,3520
2017-06-19T08:55:04.875Z,3495
2017-06-19T08:56:05.091Z,3670
2017-06-19T08:57:05.041Z,3845
2017-06-19T08:58:05.075Z,3885
2017-06-19T08:59:05.046Z,3855
2017-06-19T09:00:05.143Z,4010
2017-06-19T09:01:05.175Z,4065
2017-06-19T09:02:05.217Z,3705
2017-06-19T09:03:05.287Z,3655
2017-06-19T09:04:05.314Z,3530
2017-06-19T09:05:05.357Z,3695
2017-06-19T09:06:05.402Z,3650
2017-06-19T09:07:05.505Z,3700
2017-06-19T09:08:05.463Z,3375
2017-06-19T09:09:05.526Z,3270
2017-06-19T09:10:05.639Z,3085
2017-06-19T09:11:05.670Z,3285
2017-06-19T09:12:05.705Z,3475
2017-06-19T09:13:05.754Z,3300
2017-06-19T09:14:05.817Z,3145
2017-06-19T09:15:05.862Z,3215
2017-06-19T09:16:05.924Z,3355
2017-06-19T09:17:06.034Z,3235
2017-06-19T09:18:06.030Z,2840
2017-06-19T09:19:06.070Z,2930
2017-06-19T09:20:06.129Z,3060
2017-06-19T09:21:06.178Z,2855
2017-06-19T09:22:06.237Z,2930
2017-06-19T09:23:06.323Z,3195
2017-06-19T09:24:06.368Z,3380
2017-06-19T09:25:06.575Z,3230
2017-06-19T09:26:06.471Z,2755
2017-06-19T09:27:06.528Z,2470
2017-06-19T09:28:06.631Z,2390
2017-06-19T09:29:06.601Z,2405
2017-06-19T09:30:06.823Z,2480
2017-06-19T09:31:06.740Z,2265
2017-06-19T09:32:06.806Z,1795
2017-06-19T09:33:06.867Z,1575
2017-06-19T09:34:07.144Z,1600
2017-06-19T09:35:07.405Z,1755
2017-06-19T09:36:07.032Z,1785
2017-06-19T09:37:07.079Z,1870
2017-06-19T09:38:07.147Z,2010
2017-06-19T09:39:07.205Z,2230
2017-06-19T09:40:07.246Z,2395
2017-06-19T09:41:07.334Z,2315
2017-06-19T09:42:07.317Z,2495
2017-06-19T09:43:07.405Z,1190
2017-06-19T09:44:07.450Z,1860
2017-06-19T09:45:07.508Z,2070
2017-06-19T09:46:07.542Z,2600
2017-06-19T09:47:07.624Z,2420
2017-06-19T09:48:07.636Z,2360
2017-06-19T09:49:07.730Z,2745
2017-06-19T09:50:07.849Z,2940
2017-06-19T09:51:07.861Z,2905
2017-06-19T09:52:07.878Z,2850
2017-06-19T09:53:07.954Z,3015
2017-06-19T09:54:08.052Z,3270
2017-06-19T09:55:08.054Z,3185
2017-06-19T09:56:08.109Z,3275
2017-06-19T09:57:08.188Z,3235
2017-06-19T09:58:08.165Z,3190
2017-06-19T09:59:08.344Z,3045
2017-06-19T10:00:08.353Z,2785
2017-06-19T10:01:08.501Z,2770
2017-06-19T10:02:08.431Z,2870
2017-06-19T10:03:08.519Z,3025
2017-06-19T10:04:08.551Z,3215
2017-06-19T10:05:08.652Z,3290
2017-06-19T10:06:08.746Z,3215
2017-06-19T10:07:08.753Z,3255
2017-06-19T10:08:08.855Z,3250
2017-06-19T10:09:08.827Z,460
2017-06-19T10:10:08.923Z,390
2017-06-19T10:11:08.897Z,415
2017-06-19T10:12:08.984Z,650
2017-06-19T10:13:09.104Z,3315
2017-06-19T10:14:09.114Z,3320
2017-06-19T10:15:09.211Z,3195
2017-06-19T10:16:09.260Z,2980
2017-06-19T10:17:09.287Z,2810
2017-06-19T10:18:09.340Z,2790
2017-06-19T10:19:09.463Z,2885
2017-06-19T10:20:09.450Z,2820
2017-06-19T10:21:09.442Z,3155
2017-06-19T10:22:09.525Z,2495
2017-06-19T10:23:09.556Z,1175
2017-06-19T10:24:09.632Z,3100
2017-06-19T10:25:09.721Z,2970
2017-06-19T10:26:09.756Z,2915
2017-06-19T10:27:09.822Z,2940
2017-06-19T10:28:09.818Z,3035
2017-06-19T10:29:09.917Z,3045
2017-06-19T10:30:09.968Z,3030
2017-06-19T10:31:10.198Z,3050
2017-06-19T10:32:10.022Z,2965
2017-06-19T10:33:10.095Z,2900
2017-06-19T10:34:10.161Z,3145
2017-06-19T10:35:10.201Z,3200
2017-06-19T10:36:10.244Z,2765
2017-06-19T10:37:10.291Z,2530
2017-06-19T10:38:10.305Z,2615
2017-06-19T10:39:10.375Z,2555
2017-06-19T10:40:10.461Z,2895
2017-06-19T10:41:10.553Z,2970
2017-06-19T10:42:10.563Z,2765
2017-06-19T10:43:10.553Z,3230
2017-06-19T10:44:10.604Z,3105
2017-06-19T10:45:10.749Z,2680
2017-06-19T10:46:10.752Z,2715
2017-06-19T10:47:10.785Z,2790
2017-06-19T10:48:10.831Z,2805
2017-06-19T10:49:10.854Z,2720
2017-06-19T10:50:10.954Z,2610
2017-06-19T10:51:10.951Z,2590
2017-06-19T10:52:10.994Z,2750
2017-06-19T10:53:11.158Z,2740
2017-06-19T10:54:11.111Z,2560
2017-06-19T10:55:11.237Z,2605
2017-06-19T10:56:11.261Z,665
2017-06-19T10:57:11.269Z,460
2017-06-19T10:58:11.313Z,2680
2017-06-19T10:59:11.358Z,1265
2017-06-19T11:00:11.367Z,2625
2017-06-19T11:01:11.419Z,3125
2017-06-19T11:02:11.551Z,3040
2017-06-19T11:03:11.552Z,3035
2017-06-19T11:04:11.545Z,2875
2017-06-19T11:05:11.643Z,2805
2017-06-19T11:06:11.708Z,2785
2017-06-19T11:07:11.765Z,2235
2017-06-19T11:08:11.858Z,1085
2017-06-19T11:09:11.836Z,505
2017-06-19T11:10:11.865Z,450
2017-06-19T11:11:11.911Z,425
2017-06-19T11:12:11.910Z,405
2017-06-19T11:13:11.950Z,385
2017-06-19T11:14:12.055Z,365
2017-06-19T11:15:12.082Z,355
2017-06-19T11:16:12.094Z,345
2017-06-19T11:17:12.188Z,335
2017-06-19T11:18:12.214Z,325
2017-06-19T11:19:12.253Z,320
2017-06-19T11:20:12.297Z,315
2017-06-19T11:21:12.362Z,310
2017-06-19T11:22:12.398Z,305
2017-06-19T11:23:12.429Z,295
2017-06-19T11:24:12.528Z,295
2017-06-19T11:25:12.512Z,295
2017-06-19T11:26:12.610Z,290
2017-06-19T11:27:12.626Z,285
2017-06-19T11:28:12.653Z,280
2017-06-19T11:29:12.653Z,275
2017-06-19T11:30:12.691Z,265
2017-06-19T11:31:12.833Z,260
2017-06-19T11:32:12.871Z,260
2017-06-19T11:33:12.864Z,260
2017-06-19T11:34:12.965Z,260
2017-06-19T11:35:12.914Z,260
2017-06-19T11:36:13.014Z,265
2017-06-19T11:37:13.033Z,265
2017-06-19T11:38:13.067Z,265
2017-06-19T11:39:13.134Z,260
2017-06-19T11:40:13.178Z,265
2017-06-19T11:41:13.251Z,265
2017-06-19T11:42:13.250Z,265
2017-06-19T11:43:13.299Z,265
2017-06-19T11:44:13.302Z,265
2017-06-19T11:45:13.442Z,265
2017-06-19T11:46:13.474Z,260
2017-06-19T11:47:13.502Z,255
2017-06-19T11:48:13.513Z,250
2017-06-19T11:49:13.568Z,250
2017-06-19T11:50:13.637Z,250
2017-06-19T11:51:13.629Z,250
2017-06-19T11:52:13.648Z,255
2017-06-19T11:53:13.776Z,255
2017-06-19T11:54:13.858Z,260
2017-06-19T11:55:13.807Z,255
2017-06-19T11:56:13.852Z,255
2017-06-19T11:57:13.891Z,260
2017-06-19T11:58:13.931Z,270
2017-06-19T11:59:13.955Z,275
2017-06-19T12:00:14.054Z,260
2017-06-19T12:01:14.109Z,255
2017-06-19T12:02:14.126Z,250
2017-06-19T12:03:14.144Z,245
2017-06-19T12:04:14.151Z,250
2017-06-19T12:05:14.400Z,250
2017-06-19T12:06:14.293Z,260
2017-06-19T12:07:14.313Z,265
2017-06-19T12:08:14.361Z,270
2017-06-19T12:09:14.386Z,290
2017-06-19T12:10:14.471Z,305
2017-06-19T12:11:14.522Z,315
2017-06-19T12:12:14.573Z,325
2017-06-19T12:13:14.574Z,330
2017-06-19T12:14:14.608Z,330
2017-06-19T12:15:14.713Z,345
2017-06-19T12:16:14.725Z,340
2017-06-19T12:17:14.774Z,335
2017-06-19T12:18:14.753Z,335
2017-06-19T12:19:14.859Z,335
2017-06-19T12:20:14.949Z,315
2017-06-19T12:21:14.910Z,300
2017-06-19T12:22:14.989Z,295
2017-06-19T12:23:15.074Z,285
2017-06-19T12:24:14.994Z,260
2017-06-19T12:25:15.138Z,260
2017-06-19T12:26:15.140Z,245
2017-06-19T12:27:15.144Z,215
2017-06-19T12:28:15.232Z,240
2017-06-19T12:29:15.349Z,210
2017-06-19T12:30:15.435Z,195
2017-06-19T12:31:15.379Z,190
2017-06-19T12:32:15.383Z,210
2017-06-19T12:33:15.465Z,225
2017-06-19T12:34:15.440Z,235
2017-06-19T12:35:15.486Z,250
2017-06-19T12:36:15.567Z,265
2017-06-19T12:37:15.587Z,255
2017-06-19T12:38:15.682Z,245
2017-06-19T12:39:15.744Z,235
2017-06-19T12:40:15.710Z,240
2017-06-19T12:41:15.758Z,235
2017-06-19T12:42:15.822Z,200
2017-06-19T12:43:15.865Z,205
2017-06-19T12:44:15.926Z,200
2017-06-19T12:45:16.012Z,200
2017-06-19T12:46:15.959Z,200
2017-06-19T12:47:16.026Z,195
2017-06-19T12:48:16.067Z,195
2017-06-19T12:49:16.144Z,195
2017-06-19T12:50:16.175Z,195
2017-06-19T12:51:16.165Z,195
2017-06-19T12:52:16.256Z,195
2017-06-19T12:53:16.241Z,195
2017-06-19T12:54:16.307Z,200
2017-06-19T12:55:16.365Z,205
2017-06-19T12:56:16.379Z,210
2017-06-19T12:57:16.484Z,220
2017-06-19T12:58:16.494Z,225
2017-06-19T12:59:16.493Z,220
2017-06-19T13:00:16.541Z,220
2017-06-19T13:01:16.635Z,215
2017-06-19T13:02:16.675Z,215
2017-06-19T13:03:16.612Z,205
2017-06-19T13:04:16.711Z,200
2017-06-19T13:05:16.797Z,195
2017-06-19T13:06:16.788Z,200
2017-06-19T13:07:16.885Z,200
2017-06-19T13:08:16.922Z,205
2017-06-19T13:09:16.922Z,200
2017-06-19T13:10:16.980Z,200
2017-06-19T13:11:17.081Z,200
2017-06-19T13:12:17.090Z,200
2017-06-19T13:13:17.075Z,200
2017-06-19T13:14:17.096Z,195
2017-06-19T13:15:17.160Z,185
2017-06-19T13:16:17.214Z,165
2017-06-19T13:17:17.277Z,170
2017-06-19T13:18:17.291Z,165
2017-06-19T13:19:17.334Z,165
2017-06-19T13:20:17.389Z,165
2017-06-19T13:21:17.489Z,180
2017-06-19T13:22:17.478Z,185
2017-06-19T13:23:17.530Z,170
2017-06-19T13:24:17.545Z,165
2017-06-19T13:25:17.564Z,165
2017-06-19T13:26:17.632Z,160
2017-06-19T13:27:17.645Z,160
2017-06-19T13:28:17.684Z,165
2017-06-19T13:29:17.751Z,180
2017-06-19T13:30:17.806Z,180
2017-06-19T13:31:17.807Z,190
2017-06-19T13:32:17.876Z,200
2017-06-19T13:33:17.896Z,210
2017-06-19T13:34:17.924Z,215
2017-06-19T13:35:17.973Z,210
2017-06-19T13:36:18.035Z,205
2017-06-19T13:37:18.056Z,200
2017-06-19T13:38:18.147Z,185
2017-06-19T13:39:18.147Z,175
2017-06-19T13:40:18.353Z,175
2017-06-19T13:41:18.421Z,170
2017-06-19T13:42:18.301Z,165
2017-06-19T13:43:18.303Z,160
2017-06-19T13:44:18.325Z,155
2017-06-19T13:45:18.466Z,150
2017-06-19T13:46:18.515Z,150
2017-06-19T13:47:18.513Z,160
2017-06-19T13:48:18.569Z,165
2017-06-19T13:49:18.551Z,165
2017-06-19T13:50:18.582Z,165